Time;durP1;ratioP1;P1;durP2;ratioP2;P2;SDS_P1;SDS_P2;PMS_P1;PMS_P2;Temp;Humidity;BMP_temperature;BMP_pressure;BME280_temperature;BME280_humidity;BME280_pressure;Samples;Min_cycle;Max_cycle;Signal;HPM_P1;HPM_P2
2021/08/14 02:47:41;;;;;;;21.15;12.75;;;22.80;97.70;;;;;;4820181;24;20089;-83
2021/08/14 02:50:08;;;;;;;20.23;12.68;;;22.70;97.70;;;;;;4805629;29;20223;-83
2021/08/14 02:52:33;;;;;;;16.52;11.30;;;22.70;98.00;;;;;;4805333;29;20061;-83
2021/08/14 02:54:59;;;;;;;22.45;12.18;;;22.80;97.90;;;;;;4790234;29;20039;-83
2021/08/14 02:57:25;;;;;;;20.55;11.90;;;22.80;97.70;;;;;;4790474;29;20023;-83
2021/08/14 02:59:50;;;;;;;19.13;11.75;;;22.80;97.70;;;;;;4790404;29;20150;-83
2021/08/14 03:02:16;;;;;;;16.35;10.80;;;22.80;97.80;;;;;;4805059;29;20031;-83
2021/08/14 03:04:42;;;;;;;24.45;11.98;;;22.80;97.70;;;;;;4790792;29;20101;-83
2021/08/14 03:07:09;;;;;;;20.27;11.80;;;22.80;97.70;;;;;;4790691;29;20035;-83
2021/08/14 03:09:35;;;;;;;;;;;22.80;97.90;;;;;;4791113;29;20695;-83
2021/08/14 03:12:00;;;;;;;30.70;14.40;;;22.70;97.80;;;;;;4805784;29;19909;-83
2021/08/14 03:14:26;;;;;;;16.42;12.32;;;22.70;97.90;;;;;;4769077;30;20062;-83
2021/08/14 03:16:52;;;;;;;25.52;13.20;;;22.60;98.10;;;;;;4782250;30;20040;-83
2021/08/14 03:19:18;;;;;;;20.60;13.13;;;22.60;98.10;;;;;;4769036;30;20055;-83
2021/08/14 03:21:43;;;;;;;24.10;12.65;;;22.60;98.00;;;;;;4769901;30;20039;-83
2021/08/14 03:24:09;;;;;;;20.13;12.00;;;22.60;98.20;;;;;;4755217;30;20082;-83
2021/08/14 03:26:35;;;;;;;25.10;13.52;;;22.60;97.90;;;;;;4784972;30;20034;-83
2021/08/14 03:29:01;;;;;;;19.67;12.32;;;22.60;98.50;;;;;;4784272;30;20048;-83
2021/08/14 03:31:27;;;;;;;23.80;13.18;;;22.60;98.60;;;;;;4752855;30;20065;-83
2021/08/14 03:33:53;;;;;;;21.90;13.30;;;22.70;98.70;;;;;;4753876;30;20073;-83
2021/08/14 03:36:20;;;;;;;23.23;12.38;;;22.70;98.60;;;;;;4769353;30;20035;-83
2021/08/14 03:38:46;;;;;;;24.52;12.35;;;22.70;98.30;;;;;;4783259;30;20208;-83
2021/08/14 03:41:11;;;;;;;14.27;11.63;;;22.60;98.10;;;;;;4753437;30;20043;-83
2021/08/14 03:43:38;;;;;;;18.10;13.23;;;22.70;98.10;;;;;;4752760;30;20102;-83
2021/08/14 03:46:04;;;;;;;19.47;12.43;;;22.70;98.10;;;;;;4804913;29;20054;-83
2021/08/14 03:48:31;;;;;;;20.33;13.30;;;22.70;98.00;;;;;;4789451;29;20363;-83
2021/08/14 03:50:57;;;;;;;23.90;12.38;;;22.70;97.90;;;;;;4790035;29;20039;-83
2021/08/14 03:53:23;;;;;;;20.02;12.50;;;22.70;97.90;;;;;;4804487;29;20275;-83
2021/08/14 03:55:49;;;;;;;17.33;11.27;;;22.70;98.00;;;;;;4804817;29;20035;-83
2021/08/14 03:58:15;;;;;;;14.90;10.73;;;22.70;97.80;;;;;;4789552;29;20030;-83
2021/08/14 04:00:40;;;;;;;20.15;13.73;;;22.70;97.60;;;;;;4804774;29;20035;-83
2021/08/14 04:03:06;;;;;;;18.40;12.65;;;22.80;97.90;;;;;;4804545;29;20034;-83
2021/08/14 04:05:32;;;;;;;21.52;12.57;;;22.80;97.90;;;;;;4804644;29;20226;-83
2021/08/14 04:07:58;;;;;;;21.20;13.20;;;22.80;98.00;;;;;;4804383;29;20027;-83
2021/08/14 04:10:23;;;;;;;15.65;12.48;;;22.80;98.00;;;;;;4803871;29;20069;-83
2021/08/14 04:12:50;;;;;;;20.33;12.73;;;22.80;97.90;;;;;;4804018;29;20222;-83
2021/08/14 04:15:16;;;;;;;20.90;12.05;;;22.90;97.80;;;;;;4804184;29;20031;-83
2021/08/14 04:17:43;;;;;;;24.55;13.38;;;22.90;97.80;;;;;;4789140;29;20035;-83
2021/08/14 04:20:09;;;;;;;22.65;13.88;;;22.90;97.90;;;;;;4803808;29;20042;-83
2021/08/14 04:22:35;;;;;;;35.22;13.65;;;23.00;97.80;;;;;;4787726;29;20039;-83
2021/08/14 04:25:01;;;;;;;24.98;14.13;;;23.10;97.90;;;;;;4802527;29;20229;-83
2021/08/14 04:27:27;;;;;;;27.20;16.17;;;23.20;98.10;;;;;;4802692;29;20035;-83
2021/08/14 04:29:52;;;;;;;24.88;16.88;;;23.20;98.20;;;;;;4787801;29;20079;-83
2021/08/14 04:32:18;;;;;;;25.20;14.68;;;23.30;98.10;;;;;;4787257;29;20023;-83
2021/08/14 04:34:44;;;;;;;21.67;13.80;;;23.40;97.90;;;;;;4787890;29;20037;-83
2021/08/14 04:37:11;;;;;;;19.15;12.30;;;23.50;97.80;;;;;;4787603;29;20072;-83
2021/08/14 04:39:36;;;;;;;23.98;11.88;;;23.60;97.20;;;;;;4802716;29;20034;-83
2021/08/14 04:42:02;;;;;;;22.70;12.60;;;23.80;96.90;;;;;;4786650;29;20083;-83
2021/08/14 04:44:28;;;;;;;21.67;11.85;;;23.90;96.80;;;;;;4787857;29;20026;-83
2021/08/14 04:46:54;;;;;;;21.60;12.27;;;23.90;96.80;;;;;;4783830;30;20063;-83
2021/08/14 04:49:19;;;;;;;16.58;12.05;;;24.10;96.50;;;;;;4784875;30;20064;-83
2021/08/14 04:51:46;;;;;;;27.45;14.38;;;24.10;96.30;;;;;;4784510;30;20050;-83
2021/08/14 04:54:11;;;;;;;18.93;13.20;;;24.20;96.30;;;;;;4800633;30;20068;-83
2021/08/14 04:56:37;;;;;;;20.40;13.70;;;24.30;96.20;;;;;;4784237;30;20265;-83
2021/08/14 04:59:03;;;;;;;18.13;13.73;;;24.40;96.00;;;;;;4769530;30;20031;-83
2021/08/14 05:01:28;;;;;;;16.30;13.70;;;24.50;96.10;;;;;;4784314;30;20353;-83
2021/08/14 05:03:54;;;;;;;24.48;14.95;;;24.60;95.80;;;;;;4784105;30;20143;-83
2021/08/14 05:06:20;;;;;;;21.13;12.50;;;24.70;96.00;;;;;;4784714;30;20023;-83
2021/08/14 05:08:45;;;;;;;20.80;11.60;;;24.70;95.50;;;;;;4769826;30;20043;-83
2021/08/14 05:11:11;;;;;;;27.98;13.95;;;24.70;95.40;;;;;;4777062;30;20035;-83
2021/08/14 05:13:37;;;;;;;26.05;13.68;;;24.70;95.50;;;;;;4783638;30;20031;-83
2021/08/14 05:16:03;;;;;;;20.45;12.68;;;24.80;95.40;;;;;;4798305;30;20070;-83
2021/08/14 05:18:29;;;;;;;17.02;12.15;;;24.90;95.20;;;;;;4785599;30;20035;-83
2021/08/14 05:20:55;;;;;;;32.72;14.02;;;25.00;95.00;;;;;;4798486;30;20058;-83
2021/08/14 05:23:20;;;;;;;18.80;13.15;;;25.10;94.70;;;;;;4799449;29;20074;-83
2021/08/14 05:25:46;;;;;;;24.52;14.05;;;25.20;94.70;;;;;;4783513;30;20054;-83
2021/08/14 05:28:12;;;;;;;21.75;14.95;;;25.30;94.80;;;;;;4770750;30;20073;-83
2021/08/14 05:30:38;;;;;;;22.92;13.18;;;25.30;94.70;;;;;;4786590;30;20034;-83
2021/08/14 05:33:03;;;;;;;15.25;12.18;;;25.30;94.50;;;;;;4798215;30;20230;-83
2021/08/14 05:35:29;;;;;;;21.45;12.60;;;25.40;94.50;;;;;;4780716;30;20036;-83
2021/08/14 05:37:55;;;;;;;23.75;13.25;;;25.50;94.30;;;;;;4785810;30;20028;-82
2021/08/14 05:40:21;;;;;;;21.95;12.25;;;25.50;94.10;;;;;;4795797;30;20232;-82
2021/08/14 05:42:46;;;;;;;18.30;12.20;;;25.60;93.90;;;;;;4781137;30;20237;-82
2021/08/14 05:45:12;;;;;;;20.88;12.43;;;25.70;94.00;;;;;;4780829;30;20031;-82
2021/08/14 05:47:38;;;;;;;24.42;12.43;;;25.70;94.10;;;;;;4765851;30;20048;-82
2021/08/14 05:50:04;;;;;;;20.60;13.35;;;25.70;94.20;;;;;;4749066;30;20052;-82
2021/08/14 05:52:30;;;;;;;21.80;12.30;;;25.70;94.40;;;;;;4761764;30;20085;-82
2021/08/14 05:54:58;;;;;;;23.88;12.73;;;25.70;93.80;;;;;;4768501;30;20039;-82
2021/08/14 05:57:24;;;;;;;22.13;13.00;;;25.80;93.90;;;;;;4781872;30;20045;-82
2021/08/14 05:59:49;;;;;;;16.52;12.93;;;25.80;93.50;;;;;;4766830;30;20032;-82
2021/08/14 06:02:15;;;;;;;18.80;12.52;;;25.80;93.60;;;;;;4754911;30;20087;-82
2021/08/14 06:04:41;;;;;;;17.90;12.90;;;25.90;93.50;;;;;;4768817;30;20308;-82
2021/08/14 06:07:06;;;;;;;17.50;12.05;;;26.10;93.50;;;;;;4768063;30;20024;-82
2021/08/14 06:09:32;;;;;;;19.10;13.05;;;26.20;93.10;;;;;;4755279;30;20028;-82
2021/08/14 06:11:59;;;;;;;22.83;14.13;;;26.20;92.80;;;;;;4782062;30;20036;-82
2021/08/14 06:14:25;;;;;;;18.40;12.70;;;26.30;92.70;;;;;;4760015;30;20083;-82
2021/08/14 06:16:51;;;;;;;22.65;12.13;;;26.30;92.70;;;;;;4783222;30;20097;-82
2021/08/14 06:19:16;;;;;;;20.75;12.40;;;26.40;92.90;;;;;;4766745;30;20062;-82
2021/08/14 06:21:42;;;;;;;22.52;13.32;;;26.50;92.70;;;;;;4766649;30;20060;-82
2021/08/14 06:24:08;;;;;;;22.52;12.40;;;26.60;91.80;;;;;;4764784;30;20082;-82
2021/08/14 06:26:34;;;;;;;17.38;12.23;;;27.00;91.40;;;;;;4768820;30;20032;-82
2021/08/14 06:29:00;;;;;;;18.75;12.77;;;27.20;90.50;;;;;;4753297;30;20055;-82
2021/08/14 06:31:26;;;;;;;19.48;11.07;;;27.60;89.90;;;;;;4769024;30;20250;-82
2021/08/14 06:33:51;;;;;;;19.40;11.98;;;27.80;89.70;;;;;;4768687;30;20380;-82
2021/08/14 06:36:17;;;;;;;33.57;11.13;;;28.00;87.70;;;;;;4784061;30;20132;-82
2021/08/14 06:38:43;;;;;;;15.80;10.68;;;28.10;87.50;;;;;;4776818;30;20028;-83
2021/08/14 06:41:09;;;;;;;17.42;11.10;;;28.30;86.30;;;;;;4758289;30;20028;-82
2021/08/14 06:43:35;;;;;;;12.93;10.23;;;28.50;85.50;;;;;;4765618;30;20035;-82
2021/08/14 06:46:00;;;;;;;21.53;11.60;;;28.50;86.00;;;;;;4779037;30;20059;-82
2021/08/14 06:48:26;;;;;;;13.95;10.15;;;28.60;86.10;;;;;;4800630;30;20039;-82
2021/08/14 06:50:52;;;;;;;15.48;10.15;;;28.80;83.90;;;;;;4785830;30;20039;-82
2021/08/14 06:53:18;;;;;;;16.67;10.60;;;28.90;83.90;;;;;;4801884;29;20031;-82
2021/08/14 06:55:44;;;;;;;15.83;10.90;;;29.10;82.90;;;;;;4803991;29;20038;-82
2021/08/14 06:58:10;;;;;;;20.05;11.10;;;29.20;81.90;;;;;;4804178;29;20019;-82
2021/08/14 07:00:36;;;;;;;19.75;10.65;;;29.40;81.90;;;;;;4785631;30;20046;-82
2021/08/14 07:03:01;;;;;;;15.43;10.73;;;29.50;82.00;;;;;;4800657;30;20035;-82
2021/08/14 07:05:27;;;;;;;19.20;10.93;;;29.50;81.30;;;;;;4786901;30;20047;-80
2021/08/14 07:07:53;;;;;;;18.33;11.37;;;29.50;82.20;;;;;;4796112;29;20027;-80
2021/08/14 07:10:19;;;;;;;19.27;10.87;;;29.70;81.50;;;;;;4786198;30;20031;-80
2021/08/14 07:12:44;;;;;;;15.30;11.67;;;29.70;81.40;;;;;;4804026;29;20026;-81
2021/08/14 07:15:12;;;;;;;18.43;11.13;;;29.80;79.80;;;;;;4803986;29;20326;-81
2021/08/14 07:17:37;;;;;;;13.73;10.73;;;29.80;80.10;;;;;;4788687;29;20031;-81
2021/08/14 07:20:04;;;;;;;19.40;11.17;;;29.70;79.80;;;;;;4788041;29;20076;-81
2021/08/14 07:22:30;;;;;;;;;;;29.60;79.80;;;;;;4803554;29;20094;-81
2021/08/14 07:24:57;;;;;;;14.00;10.73;;;29.60;79.40;;;;;;4788569;29;19909;-81
2021/08/14 07:27:24;;;;;;;15.52;10.30;;;29.50;79.80;;;;;;4803624;29;20113;-81
2021/08/14 07:29:50;;;;;;;15.75;10.90;;;29.50;80.30;;;;;;4788236;29;20042;-81
2021/08/14 07:32:16;;;;;;;36.17;13.00;;;29.80;80.10;;;;;;4803237;29;20030;-81
2021/08/14 07:34:42;;;;;;;19.83;10.35;;;29.90;80.00;;;;;;4801079;29;20058;-81
2021/08/14 07:37:08;;;;;;;19.60;11.77;;;30.20;80.00;;;;;;4803532;29;20027;-81
2021/08/14 07:39:34;;;;;;;16.33;10.80;;;30.30;78.10;;;;;;4798900;30;20118;-81
2021/08/14 07:41:59;;;;;;;21.90;10.50;;;30.30;78.20;;;;;;4793622;29;20561;-81
2021/08/14 07:44:25;;;;;;;16.17;9.83;;;30.50;77.20;;;;;;4800000;30;20157;-81
2021/08/14 07:46:51;;;;;;;17.20;10.57;;;30.60;76.70;;;;;;4778160;30;20295;-81
2021/08/14 07:49:17;;;;;;;16.60;9.73;;;30.60;77.30;;;;;;4785916;30;20039;-81
2021/08/14 07:51:42;;;;;;;21.27;11.00;;;30.80;77.70;;;;;;4785553;30;20338;-81
2021/08/14 07:54:08;;;;;;;18.70;12.53;;;30.90;73.70;;;;;;4785228;30;20318;-81
2021/08/14 07:56:34;;;;;;;14.73;10.00;;;30.90;75.50;;;;;;4786235;30;20031;-81
2021/08/14 07:59:00;;;;;;;18.40;11.63;;;30.90;74.60;;;;;;4800931;30;20054;-81
2021/08/14 08:01:26;;;;;;;17.17;10.80;;;31.20;75.10;;;;;;4771941;30;20035;-81
2021/08/14 08:03:51;;;;;;;17.43;11.23;;;31.30;74.30;;;;;;4785814;30;20039;-81
2021/08/14 08:06:17;;;;;;;14.53;10.80;;;31.40;72.60;;;;;;4771285;30;20035;-82
2021/08/14 08:08:43;;;;;;;17.40;10.00;;;31.60;73.00;;;;;;4770277;30;20035;-81
2021/08/14 08:11:08;;;;;;;22.70;10.43;;;31.80;71.90;;;;;;4786356;30;20215;-82
2021/08/14 08:13:34;;;;;;;16.23;10.57;;;31.90;70.90;;;;;;4787508;30;20363;-82
2021/08/14 08:16:00;;;;;;;16.43;10.30;;;32.00;70.90;;;;;;4775215;30;20056;-82
2021/08/14 08:18:26;;;;;;;18.77;10.70;;;32.10;69.50;;;;;;4784829;30;20390;-82
2021/08/14 08:20:52;;;;;;;15.43;8.90;;;32.20;69.10;;;;;;4785182;30;20031;-82
2021/08/14 08:23:17;;;;;;;18.23;9.70;;;32.30;67.80;;;;;;4785833;30;20084;-82
2021/08/14 08:25:43;;;;;;;12.90;9.47;;;32.30;68.30;;;;;;4784628;30;20039;-82
2021/08/14 08:28:09;;;;;;;16.00;7.78;;;32.40;66.70;;;;;;4767612;30;20062;-82
2021/08/14 08:30:36;;;;;;;14.30;8.57;;;32.30;64.90;;;;;;4768452;30;20040;-81
2021/08/14 08:33:02;;;;;;;24.40;7.28;;;32.30;66.00;;;;;;4768962;30;20315;-82
2021/08/14 08:35:27;;;;;;;11.90;7.22;;;32.40;64.30;;;;;;4768557;30;20333;-80
2021/08/14 08:55:46;;;;;;;12.82;7.40;;;31.50;66.20;;;;;;5090326;28;20228;-80
2021/08/14 08:58:12;;;;;;;;;;;31.70;67.00;;;;;;5048741;28;20025;-83
2021/08/14 09:00:37;;;;;;;13.05;7.45;;;32.00;66.90;;;;;;5032456;28;19920;-80
2021/08/14 09:03:15;;;;;;;12.40;6.97;;;32.30;64.80;;;;;;5037892;28;20029;-81
2021/08/14 09:05:50;;;;;;;14.55;7.53;;;32.70;64.40;;;;;;5024764;28;20034;-81
2021/08/14 09:08:17;;;;;;;14.88;8.18;;;33.00;62.30;;;;;;5037735;28;20094;-80
2021/08/14 09:10:43;;;;;;;11.85;6.97;;;33.10;60.40;;;;;;5030657;28;20034;-80
2021/08/14 09:13:13;;;;;;;24.47;7.83;;;33.20;62.30;;;;;;5024306;28;20037;-80
2021/08/14 09:15:39;;;;;;;14.95;7.93;;;33.20;61.50;;;;;;5038524;28;20288;-80
2021/08/14 09:18:08;;;;;;;25.73;8.07;;;33.20;61.60;;;;;;5038123;28;20025;-80
2021/08/14 09:20:49;;;;;;;13.32;6.35;;;33.10;61.30;;;;;;5043312;28;20093;-80
2021/08/14 09:23:16;;;;;;;11.68;6.35;;;33.00;61.20;;;;;;5042595;28;20025;-80
2021/08/14 09:25:43;;;;;;;14.63;7.47;;;33.00;61.80;;;;;;5042329;28;20020;-79
2021/08/14 09:28:11;;;;;;;11.20;6.75;;;33.00;60.20;;;;;;5041849;28;20033;-79
2021/08/14 09:30:51;;;;;;;24.83;7.35;;;33.00;61.10;;;;;;5026294;28;20040;-79
2021/08/14 09:33:21;;;;;;;18.40;7.63;;;33.10;60.10;;;;;;5025134;28;20022;-80
2021/08/14 09:35:53;;;;;;;18.52;6.95;;;33.20;62.30;;;;;;5044346;28;20022;-79
2021/08/14 09:38:20;;;;;;;10.73;6.97;;;33.40;58.80;;;;;;5025829;28;20052;-80
2021/08/14 09:40:47;;;;;;;29.50;8.25;;;33.40;58.50;;;;;;5026296;28;20340;-80
2021/08/14 09:43:14;;;;;;;15.07;6.38;;;33.30;59.10;;;;;;5026708;28;20032;-80
2021/08/14 09:45:56;;;;;;;16.63;6.47;;;33.40;59.20;;;;;;5042190;28;20075;-80
2021/08/14 09:48:26;;;;;;;14.15;6.43;;;33.50;57.80;;;;;;5007791;28;20057;-79
2021/08/14 09:50:52;;;;;;;15.43;6.82;;;33.60;58.50;;;;;;5006419;28;20030;-80
2021/08/14 09:53:19;;;;;;;;;;;33.80;55.50;;;;;;5022768;28;20033;-80
2021/08/14 09:55:50;;;;;;;18.75;6.72;;;33.80;56.90;;;;;;5006397;28;19933;-81
2021/08/14 09:58:20;;;;;;;12.15;6.88;;;34.10;57.80;;;;;;5024200;28;20026;-80
2021/08/14 10:00:48;;;;;;;18.92;6.47;;;34.30;56.60;;;;;;5022215;28;20364;-80
2021/08/14 10:03:16;;;;;;;19.15;7.20;;;34.20;56.80;;;;;;5005322;28;20321;-80
2021/08/14 10:05:43;;;;;;;17.65;5.40;;;34.10;55.50;;;;;;5016893;28;20045;-80
2021/08/14 10:08:09;;;;;;;13.88;5.97;;;34.40;57.90;;;;;;5009548;28;20336;-80
2021/08/14 10:10:36;;;;;;;15.55;5.80;;;34.50;54.10;;;;;;4993768;28;20027;-81
2021/08/14 10:13:02;;;;;;;14.77;6.07;;;34.70;55.70;;;;;;5008424;28;20030;-80
2021/08/14 10:15:28;;;;;;;16.70;6.85;;;34.90;54.10;;;;;;5020503;28;20041;-80
2021/08/14 10:17:55;;;;;;;19.40;6.65;;;34.90;55.50;;;;;;5046249;28;20026;-81
2021/08/14 10:20:24;;;;;;;17.00;6.32;;;34.80;55.00;;;;;;5032488;28;20225;-80
2021/08/14 10:23:02;;;;;;;13.93;5.93;;;34.90;54.00;;;;;;5010048;28;20029;-80
2021/08/14 10:25:30;;;;;;;10.25;6.53;;;35.10;53.10;;;;;;5012921;28;20029;-80
2021/08/14 10:27:58;;;;;;;14.68;6.22;;;35.10;54.30;;;;;;5028638;28;20034;-81
2021/08/14 10:30:49;;;;;;;14.02;6.35;;;35.20;54.70;;;;;;5011083;28;20026;-80
2021/08/14 10:33:27;;;;;;;14.02;5.95;;;35.30;54.00;;;;;;4993402;28;20026;-81
2021/08/14 10:35:56;;;;;;;11.70;6.35;;;35.30;53.50;;;;;;4992057;28;20053;-82
2021/08/14 10:38:51;;;;;;;13.73;5.80;;;35.40;55.30;;;;;;4993394;28;20030;-81
2021/08/14 10:41:17;;;;;;;12.93;6.28;;;35.70;54.30;;;;;;5015750;28;20036;-81
2021/08/14 10:43:52;;;;;;;17.73;6.13;;;35.70;53.40;;;;;;5013981;28;20025;-81
2021/08/14 10:46:38;;;;;;;17.23;7.05;;;35.70;52.60;;;;;;5028149;28;20072;-82
2021/08/14 10:49:11;;;;;;;16.70;7.07;;;35.70;53.80;;;;;;5009423;28;20056;-81
2021/08/14 10:51:50;;;;;;;10.00;6.32;;;35.80;52.90;;;;;;4993932;28;20038;-81
2021/08/14 10:54:28;;;;;;;14.55;5.72;;;35.60;53.20;;;;;;4993644;28;20033;-81
2021/08/14 10:57:01;;;;;;;22.65;6.68;;;35.60;54.30;;;;;;5028016;28;20375;-81
2021/08/14 10:59:37;;;;;;;14.70;6.60;;;35.60;53.20;;;;;;5011198;28;20042;-81
2021/08/14 11:02:08;;;;;;;18.13;7.07;;;35.50;52.70;;;;;;5027149;28;20030;-81
2021/08/14 11:04:39;;;;;;;14.13;6.40;;;35.50;54.60;;;;;;5027632;28;20055;-82
2021/08/14 11:07:20;;;;;;;22.20;7.80;;;35.80;53.40;;;;;;5036809;28;20087;-82
2021/08/14 11:09:45;;;;;;;16.80;6.15;;;35.70;52.70;;;;;;5012280;28;20026;-82
2021/08/14 11:12:11;;;;;;;17.42;6.25;;;35.60;53.20;;;;;;5010375;28;20218;-81
2021/08/14 11:14:46;;;;;;;14.52;7.22;;;35.20;53.60;;;;;;5007202;28;20045;-82
2021/08/14 11:17:13;;;;;;;14.77;6.22;;;35.20;54.90;;;;;;4996584;28;20050;-81
2021/08/14 11:19:46;;;;;;;15.30;5.50;;;35.30;54.20;;;;;;5027875;28;20044;-82
2021/08/14 11:22:30;;;;;;;9.48;5.22;;;35.60;54.30;;;;;;5028430;28;20053;-81
2021/08/14 11:24:59;;;;;;;11.82;4.95;;;36.00;53.00;;;;;;5025366;28;20030;-81
2021/08/14 11:27:28;;;;;;;8.40;4.55;;;36.10;53.40;;;;;;4992462;28;20030;-82
2021/08/14 11:29:58;;;;;;;12.23;4.90;;;36.30;50.80;;;;;;5025146;28;20030;-81
2021/08/14 11:32:24;;;;;;;14.40;4.70;;;36.00;48.50;;;;;;5029653;28;20029;-80
2021/08/14 11:34:51;;;;;;;17.52;5.00;;;36.10;47.60;;;;;;5034577;28;20041;-80
2021/08/14 11:37:18;;;;;;;10.57;4.55;;;36.00;47.10;;;;;;5047814;28;20029;-80
2021/08/14 11:39:44;;;;;;;;;;;36.00;48.80;;;;;;5018583;28;20075;-80
2021/08/14 11:42:11;;;;;;;12.07;3.95;;;36.10;46.20;;;;;;5012545;28;19985;-81
2021/08/14 11:44:38;;;;;;;8.18;4.40;;;36.20;46.60;;;;;;5030694;28;20037;-81
2021/08/14 11:47:07;;;;;;;17.33;4.97;;;36.20;48.00;;;;;;5040992;28;20040;-81
2021/08/14 11:50:04;;;;;;;9.75;4.07;;;36.30;46.70;;;;;;5022010;28;20028;-81
2021/08/14 11:52:30;;;;;;;12.57;4.70;;;35.90;45.30;;;;;;5050529;28;20036;-81
2021/08/14 11:55:13;;;;;;;9.50;4.27;;;35.70;46.60;;;;;;5033008;28;20162;-80
2021/08/14 11:57:42;;;;;;;14.88;4.35;;;35.80;48.40;;;;;;5014723;28;20367;-81
2021/08/14 12:00:29;;;;;;;14.88;4.72;;;36.10;47.60;;;;;;5033549;28;20073;-81
2021/08/14 12:03:16;;;;;;;8.15;4.05;;;36.00;45.70;;;;;;5022045;28;20029;-81
2021/08/14 12:05:44;;;;;;;15.20;4.85;;;36.10;45.60;;;;;;5034453;28;20049;-81
2021/08/14 12:08:30;;;;;;;17.80;5.03;;;36.00;46.30;;;;;;5018319;28;20021;-81
2021/08/14 12:11:03;;;;;;;15.27;4.97;;;36.10;47.30;;;;;;5020542;28;20316;-82
2021/08/14 12:13:32;;;;;;;13.23;4.45;;;36.30;49.10;;;;;;5007075;28;20401;-82
2021/08/14 12:16:17;;;;;;;11.43;4.95;;;36.30;46.40;;;;;;4993012;28;20061;-82
2021/08/14 12:18:45;;;;;;;15.35;5.63;;;36.20;47.30;;;;;;5018283;28;20030;-81
2021/08/14 12:21:12;;;;;;;15.20;4.68;;;36.20;45.60;;;;;;5020581;28;20043;-80
2021/08/14 12:23:40;;;;;;;9.25;5.07;;;36.20;48.80;;;;;;5049486;28;20028;-80
2021/08/14 12:26:11;;;;;;;17.88;4.80;;;36.30;46.80;;;;;;5033178;28;20025;-80
2021/08/14 12:28:39;;;;;;;11.93;5.10;;;36.30;48.20;;;;;;5045709;28;20064;-81
2021/08/14 12:31:20;;;;;;;9.90;4.70;;;36.30;47.30;;;;;;5025602;28;20101;-80
2021/08/14 12:33:52;;;;;;;16.23;5.53;;;36.20;47.00;;;;;;5028118;28;20053;-80
2021/08/14 12:36:37;;;;;;;15.05;5.75;;;36.20;47.80;;;;;;5026487;28;20085;-80
2021/08/14 12:39:05;;;;;;;16.42;6.00;;;36.50;47.70;;;;;;5027622;28;20022;-81
2021/08/14 12:41:39;;;;;;;13.90;5.35;;;36.50;48.80;;;;;;5011653;28;20057;-81
2021/08/14 12:44:06;;;;;;;14.98;5.82;;;36.40;46.30;;;;;;5003035;28;20049;-80
2021/08/14 12:46:32;;;;;;;15.40;5.88;;;36.30;45.80;;;;;;5025398;28;20062;-80
2021/08/14 12:49:18;;;;;;;12.83;5.67;;;36.50;45.90;;;;;;5007377;28;20037;-80
2021/08/14 12:52:02;;;;;;;10.90;4.65;;;36.40;46.70;;;;;;5006980;28;20132;-80
2021/08/14 12:54:29;;;;;;;17.77;5.25;;;36.20;46.50;;;;;;5009242;28;20094;-80
2021/08/14 12:56:55;;;;;;;15.40;6.22;;;36.10;47.50;;;;;;5009634;28;20059;-80
2021/08/14 12:59:21;;;;;;;12.75;5.72;;;36.30;46.50;;;;;;5024903;28;20029;-80
2021/08/14 13:02:16;;;;;;;17.75;6.55;;;36.60;46.40;;;;;;5020237;28;20077;-81
2021/08/14 13:04:42;;;;;;;17.03;5.70;;;36.70;46.80;;;;;;4973566;28;20057;-81
2021/08/14 13:07:08;;;;;;;8.85;4.90;;;36.90;46.70;;;;;;4992535;28;20042;-81
2021/08/14 13:09:35;;;;;;;18.55;5.28;;;37.00;47.30;;;;;;5009218;28;20066;-81
2021/08/14 13:12:02;;;;;;;14.27;6.00;;;37.20;45.00;;;;;;5009265;28;20036;-80
2021/08/14 13:14:28;;;;;;;14.15;5.75;;;37.20;47.40;;;;;;5008977;28;20046;-80
2021/08/14 13:16:55;;;;;;;9.85;4.55;;;37.40;46.30;;;;;;4987024;28;20033;-81
2021/08/14 13:19:22;;;;;;;12.88;4.75;;;37.40;46.30;;;;;;4973223;28;20037;-80
2021/08/14 13:21:50;;;;;;;10.98;5.10;;;37.40;45.50;;;;;;4972747;28;20057;-79
2021/08/14 13:24:16;;;;;;;18.00;6.10;;;37.30;44.70;;;;;;4991488;28;20092;-80
2021/08/14 13:26:42;;;;;;;;;;;37.20;45.40;;;;;;5024082;28;20030;-80
2021/08/14 13:29:11;;;;;;;11.27;5.75;;;37.10;45.90;;;;;;5006512;28;20242;-79
2021/08/14 13:31:44;;;;;;;12.32;5.53;;;37.10;44.70;;;;;;4999792;28;20030;-79
2021/08/14 13:34:11;;;;;;;10.07;5.15;;;36.90;44.50;;;;;;5024692;28;20045;-79
2021/08/14 13:36:37;;;;;;;13.10;5.85;;;36.90;45.90;;;;;;5008397;28;20113;-79
2021/08/14 13:39:04;;;;;;;16.50;6.50;;;36.90;44.60;;;;;;5008612;28;20146;-80
2021/08/14 13:41:30;;;;;;;16.77;5.80;;;37.10;45.80;;;;;;5020909;28;20276;-80
2021/08/14 13:43:57;;;;;;;18.52;5.03;;;37.00;44.90;;;;;;5014910;28;20029;-82
2021/08/14 13:46:23;;;;;;;13.25;5.50;;;37.20;44.60;;;;;;5029250;28;20389;-81
2021/08/14 13:48:49;;;;;;;20.50;5.90;;;37.30;45.00;;;;;;5004606;28;20026;-81
2021/08/14 13:51:15;;;;;;;9.95;4.80;;;37.30;44.90;;;;;;5029076;28;20034;-81
2021/08/14 13:53:40;;;;;;;20.53;5.90;;;37.20;44.00;;;;;;5003509;28;20038;-80
2021/08/14 13:56:07;;;;;;;17.48;6.03;;;37.20;44.50;;;;;;5022184;28;20340;-80
2021/08/14 13:58:33;;;;;;;21.33;6.07;;;37.00;43.60;;;;;;5030069;28;20318;-80
2021/08/14 14:01:00;;;;;;;;;;;37.00;45.20;;;;;;5026795;28;20076;-81
2021/08/14 14:03:26;;;;;;;13.07;5.88;;;37.00;45.50;;;;;;5016340;28;19905;-80
2021/08/14 14:05:53;;;;;;;13.85;5.88;;;36.80;45.50;;;;;;5012897;28;20026;-81
2021/08/14 14:08:19;;;;;;;11.20;5.80;;;36.80;46.00;;;;;;5030394;28;20038;-81
2021/08/14 14:10:45;;;;;;;15.02;5.88;;;36.80;46.50;;;;;;5030869;28;20017;-81
2021/08/14 14:13:11;;;;;;;14.18;6.55;;;36.60;45.70;;;;;;5029557;28;20109;-81
2021/08/14 14:15:38;;;;;;;12.80;5.53;;;36.50;46.20;;;;;;5029260;28;20328;-82
2021/08/14 14:18:04;;;;;;;16.87;5.87;;;36.50;45.20;;;;;;5025691;28;20100;-81
2021/08/14 14:20:30;;;;;;;15.13;6.18;;;36.50;45.40;;;;;;5009700;28;20049;-81
2021/08/14 14:22:56;;;;;;;13.57;6.18;;;36.50;45.80;;;;;;5026449;28;20101;-81
2021/08/14 14:25:22;;;;;;;15.57;5.50;;;36.40;45.80;;;;;;5018674;28;20078;-79
2021/08/14 14:27:48;;;;;;;16.03;5.83;;;36.40;45.60;;;;;;5001401;28;20030;-81
2021/08/14 14:30:15;;;;;;;15.88;7.00;;;36.50;45.60;;;;;;5023183;28;20034;-80
2021/08/14 14:32:41;;;;;;;19.02;6.05;;;36.30;44.60;;;;;;5025470;28;20021;-81
2021/08/14 14:35:10;;;;;;;17.58;7.03;;;36.30;45.90;;;;;;5029085;28;20076;-81
2021/08/14 14:37:38;;;;;;;11.88;5.60;;;36.20;44.70;;;;;;5029797;28;20029;-82
2021/08/14 14:40:05;;;;;;;14.95;5.85;;;36.10;45.20;;;;;;5013417;28;20069;-81
2021/08/14 14:42:31;;;;;;;11.98;5.97;;;36.10;45.40;;;;;;5029035;28;20021;-81
2021/08/14 14:44:57;;;;;;;15.20;5.80;;;36.00;45.80;;;;;;5013422;28;20064;-81
2021/08/14 14:47:23;;;;;;;15.53;6.00;;;35.90;46.10;;;;;;5023221;28;20280;-81
2021/08/14 14:49:49;;;;;;;14.07;6.47;;;35.80;46.30;;;;;;5032541;28;20030;-82
2021/08/14 14:52:14;;;;;;;17.77;6.93;;;35.90;44.50;;;;;;5042208;28;20033;-81
2021/08/14 14:54:40;;;;;;;11.27;5.63;;;35.70;44.00;;;;;;4992738;28;20339;-81
2021/08/14 14:57:06;;;;;;;14.07;5.93;;;35.60;44.10;;;;;;5009284;28;20026;-81
2021/08/14 14:59:33;;;;;;;18.52;6.28;;;35.60;45.10;;;;;;4993797;28;20032;-81
2021/08/14 15:01:59;;;;;;;15.55;6.40;;;35.70;44.90;;;;;;4992752;28;20054;-81
2021/08/14 15:04:25;;;;;;;19.13;6.32;;;35.70;45.30;;;;;;4994052;28;20037;-80
2021/08/14 15:06:51;;;;;;;18.88;6.40;;;35.80;44.70;;;;;;5009536;28;20073;-81
2021/08/14 15:09:17;;;;;;;13.93;6.80;;;35.90;45.90;;;;;;5009088;28;20376;-80
2021/08/14 15:11:43;;;;;;;;;;;35.90;45.70;;;;;;5009416;28;20164;-80
2021/08/14 15:14:09;;;;;;;20.52;6.43;;;35.90;45.30;;;;;;4992711;28;19917;-80
2021/08/14 15:16:35;;;;;;;14.60;5.93;;;35.90;45.10;;;;;;5020906;28;20339;-80
2021/08/14 15:19:01;;;;;;;18.10;6.50;;;35.70;45.10;;;;;;5009574;28;20329;-80
2021/08/14 15:21:29;;;;;;;16.50;6.53;;;35.60;46.20;;;;;;4992921;28;20032;-82
2021/08/14 15:23:57;;;;;;;18.83;6.88;;;35.50;45.60;;;;;;4992863;28;20062;-80
2021/08/14 15:26:25;;;;;;;18.90;6.67;;;35.40;46.80;;;;;;5009098;28;20038;-83
2021/08/14 15:28:51;;;;;;;17.17;6.13;;;35.30;46.30;;;;;;5009394;28;20269;-81
2021/08/14 15:31:17;;;;;;;16.93;7.30;;;35.30;46.30;;;;;;4992352;28;20069;-82
2021/08/14 15:33:48;;;;;;;15.60;6.68;;;35.40;47.10;;;;;;5007206;28;20250;-83
2021/08/14 15:36:14;;;;;;;24.65;7.55;;;35.40;46.70;;;;;;4990646;28;20038;-80
2021/08/14 15:38:40;;;;;;;20.77;7.07;;;35.30;46.10;;;;;;5007051;28;20102;-80
2021/08/14 15:41:06;;;;;;;17.80;6.10;;;35.40;46.70;;;;;;5006978;28;20035;-79
2021/08/14 15:43:32;;;;;;;13.35;6.00;;;35.30;45.40;;;;;;4997398;28;20013;-80